sensor_id;sensor_type;location;lat;lon;timestamp;pressure;altitude;pressure_sealevel;temperature
43292;BMP280;28754;47.700;7.924;2023-03-03T00:00:34;91328.31;;;2.95
43292;BMP280;28754;47.700;7.924;2023-03-03T00:03:24;91356.66;;;2.97
43292;BMP280;28754;47.700;7.924;2023-03-03T00:06:13;91346.53;;;2.97
43292;BMP280;28754;47.700;7.924;2023-03-03T00:09:00;91343.13;;;2.92
43292;BMP280;28754;47.700;7.924;2023-03-03T00:11:53;91353.16;;;2.98
43292;BMP280;28754;47.700;7.924;2023-03-03T00:14:41;91361.31;;;3.00
43292;BMP280;28754;47.700;7.924;2023-03-03T00:17:29;91351.19;;;3.00
43292;BMP280;28754;47.700;7.924;2023-03-03T00:20:37;91346.13;;;3.00
43292;BMP280;28754;47.700;7.924;2023-03-03T00:23:39;91349.63;;;2.99
43292;BMP280;28754;47.700;7.924;2023-03-03T00:26:34;91348.09;;;2.98
43292;BMP280;28754;47.700;7.924;2023-03-03T00:29:39;91367.13;;;3.01
43292;BMP280;28754;47.700;7.924;2023-03-03T00:35:29;91332.25;;;2.91
43292;BMP280;28754;47.700;7.924;2023-03-03T00:38:17;91340.09;;;2.83
43292;BMP280;28754;47.700;7.924;2023-03-03T00:41:26;91342.06;;;2.81
43292;BMP280;28754;47.700;7.924;2023-03-03T00:44:38;91344.03;;;2.79
43292;BMP280;28754;47.700;7.924;2023-03-03T00:47:41;91349.59;;;2.70
43292;BMP280;28754;47.700;7.924;2023-03-03T00:50:34;91337.69;;;2.59
43292;BMP280;28754;47.700;7.924;2023-03-03T00:53:24;91345.72;;;2.50
43292;BMP280;28754;47.700;7.924;2023-03-03T00:56:11;91343.50;;;2.42
43292;BMP280;28754;47.700;7.924;2023-03-03T00:58:58;91341.94;;;2.41
43292;BMP280;28754;47.700;7.924;2023-03-03T01:01:46;91349.53;;;2.41
43292;BMP280;28754;47.700;7.924;2023-03-03T01:04:33;91321.16;;;2.39
43292;BMP280;28754;47.700;7.924;2023-03-03T01:07:20;91341.53;;;2.44
43292;BMP280;28754;47.700;7.924;2023-03-03T01:10:08;91340.91;;;2.48
43292;BMP280;28754;47.700;7.924;2023-03-03T01:12:55;91343.78;;;2.52
43292;BMP280;28754;47.700;7.924;2023-03-03T01:15:43;91335.44;;;2.51
43292;BMP280;28754;47.700;7.924;2023-03-03T01:18:30;91342.38;;;2.56
43292;BMP280;28754;47.700;7.924;2023-03-03T01:21:17;91348.56;;;2.60
43292;BMP280;28754;47.700;7.924;2023-03-03T01:24:03;91341.94;;;2.59
43292;BMP280;28754;47.700;7.924;2023-03-03T01:26:50;91335.78;;;2.55
43292;BMP280;28754;47.700;7.924;2023-03-03T01:29:37;91338.53;;;2.53
43292;BMP280;28754;47.700;7.924;2023-03-03T01:32:24;91334.66;;;2.51
43292;BMP280;28754;47.700;7.924;2023-03-03T01:35:11;91332.00;;;2.46
43292;BMP280;28754;47.700;7.924;2023-03-03T01:37:58;91333.53;;;2.47
43292;BMP280;28754;47.700;7.924;2023-03-03T01:40:56;91338.16;;;2.50
43292;BMP280;28754;47.700;7.924;2023-03-03T01:43:48;91342.88;;;2.46
43292;BMP280;28754;47.700;7.924;2023-03-03T01:46:45;91333.59;;;2.40
43292;BMP280;28754;47.700;7.924;2023-03-03T01:49:40;91332.47;;;2.37
43292;BMP280;28754;47.700;7.924;2023-03-03T01:52:35;91333.59;;;2.40
43292;BMP280;28754;47.700;7.924;2023-03-03T01:55:30;91336.25;;;2.45
43292;BMP280;28754;47.700;7.924;2023-03-03T01:58:28;91342.38;;;2.56
43292;BMP280;28754;47.700;7.924;2023-03-03T02:01:24;91350.00;;;2.67
43292;BMP280;28754;47.700;7.924;2023-03-03T02:04:12;91336.34;;;2.74
43292;BMP280;28754;47.700;7.924;2023-03-03T02:07:06;91335.06;;;2.83
43292;BMP280;28754;47.700;7.924;2023-03-03T02:10:13;91330.69;;;2.90
43292;BMP280;28754;47.700;7.924;2023-03-03T02:12:59;91321.88;;;2.93
43292;BMP280;28754;47.700;7.924;2023-03-03T02:15:46;91316.97;;;2.98
43292;BMP280;28754;47.700;7.924;2023-03-03T02:18:34;91323.16;;;3.02
43292;BMP280;28754;47.700;7.924;2023-03-03T02:21:23;91325.69;;;3.02
43292;BMP280;28754;47.700;7.924;2023-03-03T02:24:48;91327.50;;;2.95
43292;BMP280;28754;47.700;7.924;2023-03-03T02:27:36;91331.81;;;2.94
43292;BMP280;28754;47.700;7.924;2023-03-03T02:30:24;91333.22;;;2.90
43292;BMP280;28754;47.700;7.924;2023-03-03T02:33:11;91334.78;;;2.91
43292;BMP280;28754;47.700;7.924;2023-03-03T02:35:57;91337.31;;;2.91
43292;BMP280;28754;47.700;7.924;2023-03-03T02:39:06;91327.88;;;2.98
43292;BMP280;28754;47.700;7.924;2023-03-03T02:42:05;91335.56;;;3.03
43292;BMP280;28754;47.700;7.924;2023-03-03T02:45:00;91335.91;;;2.95
43292;BMP280;28754;47.700;7.924;2023-03-03T02:47:50;91332.44;;;2.90
43292;BMP280;28754;47.700;7.924;2023-03-03T02:50:38;91325.63;;;2.90
43292;BMP280;28754;47.700;7.924;2023-03-03T02:53:24;91324.22;;;2.94
43292;BMP280;28754;47.700;7.924;2023-03-03T02:56:13;91321.13;;;2.92
43292;BMP280;28754;47.700;7.924;2023-03-03T02:59:00;91330.91;;;2.89
43292;BMP280;28754;47.700;7.924;2023-03-03T03:01:49;91306.94;;;2.91
43292;BMP280;28754;47.700;7.924;2023-03-03T03:04:38;91325.97;;;2.94
43292;BMP280;28754;47.700;7.924;2023-03-03T03:07:24;91321.47;;;2.96
43292;BMP280;28754;47.700;7.924;2023-03-03T03:10:11;91341.47;;;2.97
43292;BMP280;28754;47.700;7.924;2023-03-03T03:13:00;91318.09;;;3.02
43292;BMP280;28754;47.700;7.924;2023-03-03T03:15:47;91325.78;;;2.95
43292;BMP280;28754;47.700;7.924;2023-03-03T03:18:34;91322.88;;;2.92
43292;BMP280;28754;47.700;7.924;2023-03-03T03:21:21;91333.56;;;2.94
43292;BMP280;28754;47.700;7.924;2023-03-03T03:24:11;91310.59;;;2.95
43292;BMP280;28754;47.700;7.924;2023-03-03T03:27:02;91320.84;;;3.00
43292;BMP280;28754;47.700;7.924;2023-03-03T03:29:49;91317.31;;;3.01
43292;BMP280;28754;47.700;7.924;2023-03-03T03:32:41;91323.94;;;3.02
43292;BMP280;28754;47.700;7.924;2023-03-03T03:35:28;91311.69;;;2.99
43292;BMP280;28754;47.700;7.924;2023-03-03T03:38:16;91315.00;;;3.00
43292;BMP280;28754;47.700;7.924;2023-03-03T03:41:04;91319.84;;;3.01
43292;BMP280;28754;47.700;7.924;2023-03-03T03:43:51;91325.69;;;3.02
43292;BMP280;28754;47.700;7.924;2023-03-03T03:46:38;91322.81;;;2.98
43292;BMP280;28754;47.700;7.924;2023-03-03T03:49:25;91327.50;;;2.95
43292;BMP280;28754;47.700;7.924;2023-03-03T03:52:14;91330.69;;;2.90
43292;BMP280;28754;47.700;7.924;2023-03-03T03:55:01;91334.22;;;2.89
43292;BMP280;28754;47.700;7.924;2023-03-03T03:57:48;91327.59;;;2.88
43292;BMP280;28754;47.700;7.924;2023-03-03T04:00:35;91315.75;;;2.89
43292;BMP280;28754;47.700;7.924;2023-03-03T04:03:22;91334.97;;;2.90
43292;BMP280;28754;47.700;7.924;2023-03-03T04:06:09;91329.16;;;2.89
43292;BMP280;28754;47.700;7.924;2023-03-03T04:08:56;91323.84;;;2.91
43292;BMP280;28754;47.700;7.924;2023-03-03T04:11:43;91332.25;;;2.91
43292;BMP280;28754;47.700;7.924;2023-03-03T04:14:31;91318.81;;;2.91
43292;BMP280;28754;47.700;7.924;2023-03-03T04:17:20;91333.00;;;2.92
43292;BMP280;28754;47.700;7.924;2023-03-03T04:20:12;91332.25;;;2.91
43292;BMP280;28754;47.700;7.924;2023-03-03T04:23:00;91328.16;;;2.90
43292;BMP280;28754;47.700;7.924;2023-03-03T04:25:49;91334.22;;;2.89
43292;BMP280;28754;47.700;7.924;2023-03-03T04:28:35;91328.16;;;2.90
43292;BMP280;28754;47.700;7.924;2023-03-03T04:31:23;91324.41;;;2.93
43292;BMP280;28754;47.700;7.924;2023-03-03T04:34:11;91330.28;;;2.93
43292;BMP280;28754;47.700;7.924;2023-03-03T04:36:59;91325.22;;;2.93
43292;BMP280;28754;47.700;7.924;2023-03-03T04:39:46;91325.97;;;2.94
43292;BMP280;28754;47.700;7.924;2023-03-03T04:42:33;91341.91;;;2.94
43292;BMP280;28754;47.700;7.924;2023-03-03T04:45:20;91333.22;;;2.90
43292;BMP280;28754;47.700;7.924;2023-03-03T04:48:08;91338.63;;;2.94
43292;BMP280;28754;47.700;7.924;2023-03-03T04:50:56;91340.38;;;2.93
43292;BMP280;28754;47.700;7.924;2023-03-03T04:53:42;91341.78;;;2.89
43292;BMP280;28754;47.700;7.924;2023-03-03T04:56:30;91338.63;;;2.94
43292;BMP280;28754;47.700;7.924;2023-03-03T04:59:17;91335.91;;;2.95
43292;BMP280;28754;47.700;7.924;2023-03-03T05:02:03;91341.72;;;2.96
43292;BMP280;28754;47.700;7.924;2023-03-03T05:04:50;91338.63;;;2.94
43292;BMP280;28754;47.700;7.924;2023-03-03T05:07:37;91331.88;;;2.88
43292;BMP280;28754;47.700;7.924;2023-03-03T05:10:24;91334.50;;;2.81
43292;BMP280;28754;47.700;7.924;2023-03-03T05:13:10;91335.69;;;2.79
43292;BMP280;28754;47.700;7.924;2023-03-03T05:16:00;91339.41;;;2.76
43292;BMP280;28754;47.700;7.924;2023-03-03T05:18:47;91337.31;;;2.73
43292;BMP280;28754;47.700;7.924;2023-03-03T05:21:34;91317.94;;;2.68
43292;BMP280;28754;47.700;7.924;2023-03-03T05:24:20;91326.50;;;2.67
43292;BMP280;28754;47.700;7.924;2023-03-03T05:27:07;91333.88;;;2.68
43292;BMP280;28754;47.700;7.924;2023-03-03T05:29:54;91333.88;;;2.68
43292;BMP280;28754;47.700;7.924;2023-03-03T05:32:41;91336.28;;;2.63
43292;BMP280;28754;47.700;7.924;2023-03-03T05:35:28;91341.09;;;2.65
43292;BMP280;28754;47.700;7.924;2023-03-03T05:38:14;91351.78;;;2.67
43292;BMP280;28754;47.700;7.924;2023-03-03T05:41:01;91356.44;;;2.70
43292;BMP280;28754;47.700;7.924;2023-03-03T05:43:48;91353.91;;;2.70
43292;BMP280;28754;47.700;7.924;2023-03-03T05:46:34;91351.91;;;2.72
43292;BMP280;28754;47.700;7.924;2023-03-03T05:49:21;91364.13;;;2.74
43292;BMP280;28754;47.700;7.924;2023-03-03T05:52:08;91360.41;;;2.77
43292;BMP280;28754;47.700;7.924;2023-03-03T05:54:54;91363.94;;;2.76
43292;BMP280;28754;47.700;7.924;2023-03-03T05:57:41;91364.13;;;2.74
43292;BMP280;28754;47.700;7.924;2023-03-03T06:00:28;91359.84;;;2.75
43292;BMP280;28754;47.700;7.924;2023-03-03T06:03:14;91354.88;;;2.69
43292;BMP280;28754;47.700;7.924;2023-03-03T06:06:02;91358.53;;;2.72
43292;BMP280;28754;47.700;7.924;2023-03-03T06:08:49;91368.19;;;2.75
43292;BMP280;28754;47.700;7.924;2023-03-03T06:11:36;91362.38;;;2.75
43292;BMP280;28754;47.700;7.924;2023-03-03T06:14:23;91368.19;;;2.75
43292;BMP280;28754;47.700;7.924;2023-03-03T06:17:10;91366.66;;;2.74
43292;BMP280;28754;47.700;7.924;2023-03-03T06:19:57;91373.69;;;2.72
43292;BMP280;28754;47.700;7.924;2023-03-03T06:22:44;91378.75;;;2.72
43292;BMP280;28754;47.700;7.924;2023-03-03T06:25:30;91383.81;;;2.72
43292;BMP280;28754;47.700;7.924;2023-03-03T06:28:17;91383.81;;;2.72
43292;BMP280;28754;47.700;7.924;2023-03-03T06:31:04;91391.38;;;2.72
43292;BMP280;28754;47.700;7.924;2023-03-03T06:33:51;91388.28;;;2.71
43292;BMP280;28754;47.700;7.924;2023-03-03T06:36:38;91396.72;;;2.65
43292;BMP280;28754;47.700;7.924;2023-03-03T06:39:24;91412.16;;;2.57
43292;BMP280;28754;47.700;7.924;2023-03-03T06:42:11;91404.59;;;2.57
43292;BMP280;28754;47.700;7.924;2023-03-03T06:44:58;91406.13;;;2.58
43292;BMP280;28754;47.700;7.924;2023-03-03T06:47:44;91412.72;;;2.59
43292;BMP280;28754;47.700;7.924;2023-03-03T06:50:31;91418.31;;;2.61
43292;BMP280;28754;47.700;7.924;2023-03-03T06:53:18;91398.69;;;2.63
43292;BMP280;28754;47.700;7.924;2023-03-03T06:56:08;91395.59;;;2.61
43292;BMP280;28754;47.700;7.924;2023-03-03T06:59:00;91406.50;;;2.61
43292;BMP280;28754;47.700;7.924;2023-03-03T07:01:49;91407.59;;;2.65
43292;BMP280;28754;47.700;7.924;2023-03-03T07:04:36;91414.34;;;2.71
43292;BMP280;28754;47.700;7.924;2023-03-03T07:07:25;91425.38;;;2.76
43292;BMP280;28754;47.700;7.924;2023-03-03T07:10:26;91428.25;;;2.80
43292;BMP280;28754;47.700;7.924;2023-03-03T07:16:11;91419.41;;;2.89
43292;BMP280;28754;47.700;7.924;2023-03-03T07:19:00;91423.03;;;2.93
43292;BMP280;28754;47.700;7.924;2023-03-03T07:21:50;91429.47;;;2.95
43292;BMP280;28754;47.700;7.924;2023-03-03T07:24:39;91452.16;;;3.02
43292;BMP280;28754;47.700;7.924;2023-03-03T07:27:29;91425.88;;;3.03
43292;BMP280;28754;47.700;7.924;2023-03-03T07:30:28;91437.94;;;3.01
43292;BMP280;28754;47.700;7.924;2023-03-03T07:33:28;91444.63;;;2.95
43292;BMP280;28754;47.700;7.924;2023-03-03T07:36:34;91445.97;;;2.98
43292;BMP280;28754;47.700;7.924;2023-03-03T07:45:25;91440.97;;;3.09
43292;BMP280;28754;47.700;7.924;2023-03-03T08:03:19;91446.97;;;3.43
43292;BMP280;28754;47.700;7.924;2023-03-03T08:06:40;91460.31;;;3.50
43292;BMP280;28754;47.700;7.924;2023-03-03T08:09:43;91447.81;;;3.55
43292;BMP280;28754;47.700;7.924;2023-03-03T08:12:40;91455.09;;;3.63
43292;BMP280;28754;47.700;7.924;2023-03-03T08:15:30;91462.38;;;3.71
43292;BMP280;28754;47.700;7.924;2023-03-03T08:18:27;91456.47;;;3.77
43292;BMP280;28754;47.700;7.924;2023-03-03T08:21:24;91442.41;;;3.81
43292;BMP280;28754;47.700;7.924;2023-03-03T08:24:11;91452.66;;;3.86
43292;BMP280;28754;47.700;7.924;2023-03-03T08:26:58;91449.25;;;3.92
43292;BMP280;28754;47.700;7.924;2023-03-03T08:29:44;91462.47;;;3.94
43292;BMP280;28754;47.700;7.924;2023-03-03T08:32:31;91451.91;;;3.97
43292;BMP280;28754;47.700;7.924;2023-03-03T08:35:18;91452.25;;;4.00
43292;BMP280;28754;47.700;7.924;2023-03-03T08:38:06;91455.88;;;4.04
43292;BMP280;28754;47.700;7.924;2023-03-03T08:40:53;91459.53;;;4.08
43292;BMP280;28754;47.700;7.924;2023-03-03T08:43:39;91454.44;;;4.08
43292;BMP280;28754;47.700;7.924;2023-03-03T08:46:26;91449.19;;;4.21
43292;BMP280;28754;47.700;7.924;2023-03-03T08:49:14;91458.41;;;4.56
43292;BMP280;28754;47.700;7.924;2023-03-03T08:52:00;91457.50;;;5.07
43292;BMP280;28754;47.700;7.924;2023-03-03T08:54:47;91448.06;;;5.69
43292;BMP280;28754;47.700;7.924;2023-03-03T08:57:34;91445.91;;;6.16
43292;BMP280;28754;47.700;7.924;2023-03-03T09:00:20;91448.16;;;6.46
43292;BMP280;28754;47.700;7.924;2023-03-03T09:03:07;91453.53;;;6.33
43292;BMP280;28754;47.700;7.924;2023-03-03T09:05:54;91445.97;;;6.05
43292;BMP280;28754;47.700;7.924;2023-03-03T09:08:41;91448.66;;;5.99
43292;BMP280;28754;47.700;7.924;2023-03-03T09:11:28;91445.91;;;5.89
43292;BMP280;28754;47.700;7.924;2023-03-03T09:14:17;91458.97;;;5.81
43292;BMP280;28754;47.700;7.924;2023-03-03T09:17:24;91453.72;;;5.71
43292;BMP280;28754;47.700;7.924;2023-03-03T09:20:38;91450.63;;;5.58
43292;BMP280;28754;47.700;7.924;2023-03-03T09:23:36;91465.09;;;5.57
43292;BMP280;28754;47.700;7.924;2023-03-03T09:26:44;91458.78;;;5.71
43292;BMP280;28754;47.700;7.924;2023-03-03T09:29:36;91445.28;;;6.26
43292;BMP280;28754;47.700;7.924;2023-03-03T09:32:33;91454.75;;;7.33
43292;BMP280;28754;47.700;7.924;2023-03-03T09:35:38;91451.25;;;9.26
43292;BMP280;28754;47.700;7.924;2023-03-03T09:41:38;91433.19;;;12.24
43292;BMP280;28754;47.700;7.924;2023-03-03T09:44:55;91445.00;;;11.57
43292;BMP280;28754;47.700;7.924;2023-03-03T09:48:03;91447.13;;;10.62
43292;BMP280;28754;47.700;7.924;2023-03-03T10:00:30;91457.44;;;8.32
43292;BMP280;28754;47.700;7.924;2023-03-03T10:06:33;91464.66;;;7.72
43292;BMP280;28754;47.700;7.924;2023-03-03T10:12:26;91480.13;;;7.65
43292;BMP280;28754;47.700;7.924;2023-03-03T10:21:30;91483.69;;;7.06
43292;BMP280;28754;47.700;7.924;2023-03-03T10:24:27;91485.53;;;6.94
43292;BMP280;28754;47.700;7.924;2023-03-03T10:46:27;91485.78;;;8.62
43292;BMP280;28754;47.700;7.924;2023-03-03T10:55:50;91472.06;;;8.42
43292;BMP280;28754;47.700;7.924;2023-03-03T11:01:50;91486.94;;;8.02
43292;BMP280;28754;47.700;7.924;2023-03-03T11:04:52;91484.81;;;7.94
43292;BMP280;28754;47.700;7.924;2023-03-03T11:07:45;91485.34;;;7.96
43292;BMP280;28754;47.700;7.924;2023-03-03T11:10:39;91484.56;;;7.96
43292;BMP280;28754;47.700;7.924;2023-03-03T11:13:55;91471.34;;;8.20
43292;BMP280;28754;47.700;7.924;2023-03-03T11:17:01;91472.94;;;8.57
43292;BMP280;28754;47.700;7.924;2023-03-03T11:20:23;91468.28;;;9.11
43292;BMP280;28754;47.700;7.924;2023-03-03T11:26:42;91470.38;;;9.70
43292;BMP280;28754;47.700;7.924;2023-03-03T11:32:55;91460.38;;;9.63
43292;BMP280;28754;47.700;7.924;2023-03-03T11:39:03;91456.16;;;9.38
43292;BMP280;28754;47.700;7.924;2023-03-03T11:42:09;91463.06;;;9.37
43292;BMP280;28754;47.700;7.924;2023-03-03T11:45:02;91465.38;;;9.39
43292;BMP280;28754;47.700;7.924;2023-03-03T11:47:57;91450.03;;;9.39
43292;BMP280;28754;47.700;7.924;2023-03-03T11:50:55;91450.06;;;9.49
43292;BMP280;28754;47.700;7.924;2023-03-03T11:53:53;91448.84;;;9.56
43292;BMP280;28754;47.700;7.924;2023-03-03T11:56:44;91441.97;;;9.61
43292;BMP280;28754;47.700;7.924;2023-03-03T11:59:43;91448.28;;;9.44
43292;BMP280;28754;47.700;7.924;2023-03-03T12:02:46;91448.72;;;9.31
43292;BMP280;28754;47.700;7.924;2023-03-03T12:06:01;91445.38;;;9.26
43292;BMP280;28754;47.700;7.924;2023-03-03T12:09:02;91447.53;;;9.54
43292;BMP280;28754;47.700;7.924;2023-03-03T12:15:01;91441.69;;;11.22
43292;BMP280;28754;47.700;7.924;2023-03-03T12:18:06;91437.78;;;11.69
43292;BMP280;28754;47.700;7.924;2023-03-03T12:24:20;91417.31;;;13.49
43292;BMP280;28754;47.700;7.924;2023-03-03T12:33:36;91412.84;;;13.82
43292;BMP280;28754;47.700;7.924;2023-03-03T12:39:44;91409.00;;;14.03
43292;BMP280;28754;47.700;7.924;2023-03-03T12:46:08;91403.88;;;14.21
43292;BMP280;28754;47.700;7.924;2023-03-03T12:48:58;91391.81;;;14.17
43292;BMP280;28754;47.700;7.924;2023-03-03T12:52:41;91392.88;;;13.93
43292;BMP280;28754;47.700;7.924;2023-03-03T12:58:20;91402.00;;;13.62
43292;BMP280;28754;47.700;7.924;2023-03-03T13:04:32;91412.84;;;12.70
43292;BMP280;28754;47.700;7.924;2023-03-03T13:13:38;91423.28;;;11.05
43292;BMP280;28754;47.700;7.924;2023-03-03T13:16:33;91422.53;;;10.61
43292;BMP280;28754;47.700;7.924;2023-03-03T13:19:25;91419.19;;;10.35
43292;BMP280;28754;47.700;7.924;2023-03-03T13:22:17;91423.50;;;10.15
43292;BMP280;28754;47.700;7.924;2023-03-03T13:28:17;91421.56;;;9.81
43292;BMP280;28754;47.700;7.924;2023-03-03T13:31:14;91425.91;;;9.76
43292;BMP280;28754;47.700;7.924;2023-03-03T13:34:02;91416.41;;;9.66
43292;BMP280;28754;47.700;7.924;2023-03-03T13:36:59;91419.19;;;9.55
43292;BMP280;28754;47.700;7.924;2023-03-03T13:43:16;91420.00;;;9.60
43292;BMP280;28754;47.700;7.924;2023-03-03T13:46:14;91415.63;;;9.56
43292;BMP280;28754;47.700;7.924;2023-03-03T13:52:13;91415.41;;;9.62
43292;BMP280;28754;47.700;7.924;2023-03-03T13:55:41;91419.94;;;9.56
43292;BMP280;28754;47.700;7.924;2023-03-03T13:58:43;91412.78;;;9.48
43292;BMP280;28754;47.700;7.924;2023-03-03T14:01:56;91410.53;;;9.61
43292;BMP280;28754;47.700;7.924;2023-03-03T14:11:02;91415.28;;;11.46
43292;BMP280;28754;47.700;7.924;2023-03-03T14:17:03;91415.03;;;11.38
43292;BMP280;28754;47.700;7.924;2023-03-03T14:20:11;91412.38;;;11.67
43292;BMP280;28754;47.700;7.924;2023-03-03T14:23:02;91415.47;;;11.65
43292;BMP280;28754;47.700;7.924;2023-03-03T14:29:03;91409.44;;;11.16
43292;BMP280;28754;47.700;7.924;2023-03-03T14:31:59;91412.03;;;10.72
43292;BMP280;28754;47.700;7.924;2023-03-03T14:34:58;91416.13;;;10.38
43292;BMP280;28754;47.700;7.924;2023-03-03T14:37:49;91404.09;;;10.29
43292;BMP280;28754;47.700;7.924;2023-03-03T14:40:38;91406.88;;;10.23
43292;BMP280;28754;47.700;7.924;2023-03-03T14:47:10;91401.19;;;9.96
43292;BMP280;28754;47.700;7.924;2023-03-03T14:49:57;91414.94;;;9.75
43292;BMP280;28754;47.700;7.924;2023-03-03T14:53:04;91414.84;;;9.56
43292;BMP280;28754;47.700;7.924;2023-03-03T14:55:52;91411.72;;;9.44
43292;BMP280;28754;47.700;7.924;2023-03-03T14:58:42;91405.50;;;9.30
43292;BMP280;28754;47.700;7.924;2023-03-03T15:01:33;91398.28;;;9.17
43292;BMP280;28754;47.700;7.924;2023-03-03T15:04:25;91404.13;;;9.08
43292;BMP280;28754;47.700;7.924;2023-03-03T15:07:34;91420.50;;;9.07
43292;BMP280;28754;47.700;7.924;2023-03-03T15:10:30;91414.03;;;8.99
43292;BMP280;28754;47.700;7.924;2023-03-03T15:16:16;91426.22;;;8.88
43292;BMP280;28754;47.700;7.924;2023-03-03T15:19:17;91416.03;;;8.88
43292;BMP280;28754;47.700;7.924;2023-03-03T15:25:21;91425.94;;;8.84
43292;BMP280;28754;47.700;7.924;2023-03-03T15:31:41;91420.44;;;8.66
43292;BMP280;28754;47.700;7.924;2023-03-03T15:34:43;91426.00;;;8.58
43292;BMP280;28754;47.700;7.924;2023-03-03T15:37:40;91417.81;;;8.51
43292;BMP280;28754;47.700;7.924;2023-03-03T15:43:26;91427.75;;;8.53
43292;BMP280;28754;47.700;7.924;2023-03-03T15:59:07;91426.34;;;8.40
43292;BMP280;28754;47.700;7.924;2023-03-03T16:02:14;91429.38;;;8.32
43292;BMP280;28754;47.700;7.924;2023-03-03T16:11:41;91437.69;;;8.23
43292;BMP280;28754;47.700;7.924;2023-03-03T16:14:41;91443.81;;;8.22
43292;BMP280;28754;47.700;7.924;2023-03-03T16:23:50;91416.28;;;7.98
43292;BMP280;28754;47.700;7.924;2023-03-03T16:27:30;91442.09;;;8.06
43292;BMP280;28754;47.700;7.924;2023-03-03T16:36:23;91453.19;;;8.17
43292;BMP280;28754;47.700;7.924;2023-03-03T16:39:28;91452.19;;;8.18
43292;BMP280;28754;47.700;7.924;2023-03-03T16:42:26;91455.19;;;8.15
43292;BMP280;28754;47.700;7.924;2023-03-03T16:45:32;91454.16;;;8.11
43292;BMP280;28754;47.700;7.924;2023-03-03T16:57:43;91469.31;;;8.01
43292;BMP280;28754;47.700;7.924;2023-03-03T17:00:47;91474.31;;;7.91
43292;BMP280;28754;47.700;7.924;2023-03-03T17:06:47;91495.91;;;7.84
43292;BMP280;28754;47.700;7.924;2023-03-03T17:12:57;91495.91;;;7.84
43292;BMP280;28754;47.700;7.924;2023-03-03T17:30:47;91518.53;;;7.80
43292;BMP280;28754;47.700;7.924;2023-03-03T17:36:39;91524.69;;;7.63
43292;BMP280;28754;47.700;7.924;2023-03-03T17:39:59;91528.50;;;7.60
43292;BMP280;28754;47.700;7.924;2023-03-03T17:42:57;91532.44;;;7.52
43292;BMP280;28754;47.700;7.924;2023-03-03T17:45:48;91537.41;;;7.42
43292;BMP280;28754;47.700;7.924;2023-03-03T17:49:01;91538.41;;;7.41
43292;BMP280;28754;47.700;7.924;2023-03-03T17:55:39;91538.19;;;7.42
43292;BMP280;28754;47.700;7.924;2023-03-03T18:07:33;91545.66;;;7.49
43292;BMP280;28754;47.700;7.924;2023-03-03T18:13:50;91556.84;;;7.48
43292;BMP280;28754;47.700;7.924;2023-03-03T18:20:30;91556.78;;;7.43
43292;BMP280;28754;47.700;7.924;2023-03-03T18:23:37;91567.53;;;7.45
43292;BMP280;28754;47.700;7.924;2023-03-03T18:26:30;91556.78;;;7.43
43292;BMP280;28754;47.700;7.924;2023-03-03T18:29:28;91564.44;;;7.43
43292;BMP280;28754;47.700;7.924;2023-03-03T18:32:20;91566.97;;;7.43
43292;BMP280;28754;47.700;7.924;2023-03-03T18:35:44;91563.84;;;7.36
43292;BMP280;28754;47.700;7.924;2023-03-03T18:38:33;91569.38;;;7.33
43292;BMP280;28754;47.700;7.924;2023-03-03T18:41:27;91573.88;;;7.26
43292;BMP280;28754;47.700;7.924;2023-03-03T18:44:27;91573.00;;;7.20
43292;BMP280;28754;47.700;7.924;2023-03-03T18:47:14;91568.31;;;7.13
43292;BMP280;28754;47.700;7.924;2023-03-03T18:50:15;91579.63;;;7.05
43292;BMP280;28754;47.700;7.924;2023-03-03T18:56:10;91581.72;;;6.92
43292;BMP280;28754;47.700;7.924;2023-03-03T18:58:57;91580.34;;;6.84
43292;BMP280;28754;47.700;7.924;2023-03-03T19:01:44;91582.25;;;6.78
43292;BMP280;28754;47.700;7.924;2023-03-03T19:04:35;91581.41;;;6.72
43292;BMP280;28754;47.700;7.924;2023-03-03T19:07:45;91589.19;;;6.66
43292;BMP280;28754;47.700;7.924;2023-03-03T19:19:16;91591.25;;;6.41
43292;BMP280;28754;47.700;7.924;2023-03-03T19:22:25;91589.25;;;6.43
43292;BMP280;28754;47.700;7.924;2023-03-03T19:25:20;91582.88;;;6.41
43292;BMP280;28754;47.700;7.924;2023-03-03T19:31:07;91584.88;;;6.39
43292;BMP280;28754;47.700;7.924;2023-03-03T19:34:28;91590.97;;;6.38
43292;BMP280;28754;47.700;7.924;2023-03-03T19:37:54;91597.50;;;6.34
43292;BMP280;28754;47.700;7.924;2023-03-03T19:47:05;91606.47;;;6.25
43292;BMP280;28754;47.700;7.924;2023-03-03T19:50:42;91603.41;;;6.23
43292;BMP280;28754;47.700;7.924;2023-03-03T20:09:01;91615.59;;;6.10
43292;BMP280;28754;47.700;7.924;2023-03-03T20:15:18;91624.13;;;6.04
43292;BMP280;28754;47.700;7.924;2023-03-03T20:21:07;91634.94;;;5.99
43292;BMP280;28754;47.700;7.924;2023-03-03T20:27:19;91630.75;;;5.93
43292;BMP280;28754;47.700;7.924;2023-03-03T20:30:11;91625.13;;;5.91
43292;BMP280;28754;47.700;7.924;2023-03-03T20:36:25;91629.88;;;5.88
43292;BMP280;28754;47.700;7.924;2023-03-03T20:39:17;91628.25;;;5.82
43292;BMP280;28754;47.700;7.924;2023-03-03T20:45:36;91609.91;;;5.80
43292;BMP280;28754;47.700;7.924;2023-03-03T20:54:28;91633.09;;;5.72
43292;BMP280;28754;47.700;7.924;2023-03-03T21:00:16;91633.75;;;5.68
43292;BMP280;28754;47.700;7.924;2023-03-03T21:03:15;91649.44;;;5.65
43292;BMP280;28754;47.700;7.924;2023-03-03T21:06:07;91640.72;;;5.61
43292;BMP280;28754;47.700;7.924;2023-03-03T21:08:55;91637.81;;;5.57
43292;BMP280;28754;47.700;7.924;2023-03-03T21:11:43;91618.72;;;5.55
43292;BMP280;28754;47.700;7.924;2023-03-03T21:14:33;91639.38;;;5.58
43292;BMP280;28754;47.700;7.924;2023-03-03T21:17:27;91643.66;;;5.58
43292;BMP280;28754;47.700;7.924;2023-03-03T21:20:31;91638.38;;;5.59
43292;BMP280;28754;47.700;7.924;2023-03-03T21:23:18;91630.41;;;5.56
43292;BMP280;28754;47.700;7.924;2023-03-03T21:26:06;91635.84;;;5.59
43292;BMP280;28754;47.700;7.924;2023-03-03T21:28:58;91633.41;;;5.64
43292;BMP280;28754;47.700;7.924;2023-03-03T21:31:47;91632.41;;;5.65
43292;BMP280;28754;47.700;7.924;2023-03-03T21:34:38;91630.84;;;5.64
43292;BMP280;28754;47.700;7.924;2023-03-03T21:37:53;91634.50;;;5.68
43292;BMP280;28754;47.700;7.924;2023-03-03T21:40:40;91634.06;;;5.71
43292;BMP280;28754;47.700;7.924;2023-03-03T21:43:48;91633.66;;;5.74
43292;BMP280;28754;47.700;7.924;2023-03-03T21:46:35;91642.47;;;5.60
43292;BMP280;28754;47.700;7.924;2023-03-03T21:49:21;91644.09;;;5.32
43292;BMP280;28754;47.700;7.924;2023-03-03T21:52:08;91657.25;;;5.18
43292;BMP280;28754;47.700;7.924;2023-03-03T21:54:55;91645.53;;;5.17
43292;BMP280;28754;47.700;7.924;2023-03-03T21:57:44;91636.47;;;5.21
43292;BMP280;28754;47.700;7.924;2023-03-03T22:00:30;91651.16;;;5.30